EJA202 KPRC-KL45
Flight info
| Callsign | EJA202 |
|---|---|
| Flight time | N/A |
| Altitude | 38000 |
| Route | DRK V12 PMD V137 JEFFY V165 LOPES |
| Aircraft | CL60/M-SBDE1E2E3FGHIJ1J4J5J7M3RWXYZ/LB1V1D1 |
Departure
| Time | 2026-04-28 00:58 |
|---|---|
| Airport | Prescott Regional Airport - Ernest A. Love Field (KPRC) |
Arrival
| Time | N/A |
|---|---|
| Airport | KL45 |
| Time | Latitude | Longitude | Altitude | Speed | Heading |
|---|---|---|---|---|---|
| 2026-04-27 23:58 | 34.65059 | -112.42089 | 5016 ft | 0 kts | 128° |
| 2026-04-28 00:44 | 34.65064 | -112.42060 | 5015 ft | 5 kts | 35° |
| 2026-04-28 00:45 | 34.65086 | -112.42049 | 5014 ft | 0 kts | 13° |
| 2026-04-28 00:45 | 34.65087 | -112.42049 | 5014 ft | 0 kts | 13° |
| 2026-04-28 00:48 | 34.65095 | -112.42042 | 5014 ft | 4 kts | 49° |
| 2026-04-28 00:48 | 34.65120 | -112.42027 | 5013 ft | 6 kts | 348° |
| 2026-04-28 00:49 | 34.65182 | -112.42053 | 5011 ft | 10 kts | 20° |
| 2026-04-28 00:49 | 34.65258 | -112.41975 | 5006 ft | 18 kts | 41° |
| 2026-04-28 00:49 | 34.65368 | -112.41860 | 4999 ft | 18 kts | 41° |
| 2026-04-28 00:49 | 34.65390 | -112.41838 | 4998 ft | 0 kts | 40° |
| 2026-04-28 00:50 | 34.65391 | -112.41836 | 4997 ft | 0 kts | 40° |
| 2026-04-28 00:50 | 34.65419 | -112.41808 | 4996 ft | 10 kts | 40° |
| 2026-04-28 00:51 | 34.65494 | -112.41730 | 4991 ft | 16 kts | 41° |
| 2026-04-28 00:51 | 34.65578 | -112.41638 | 4985 ft | 15 kts | 43° |
| 2026-04-28 00:51 | 34.65664 | -112.41545 | 4982 ft | 18 kts | 43° |
| 2026-04-28 00:51 | 34.65760 | -112.41441 | 4977 ft | 13 kts | 42° |
| 2026-04-28 00:52 | 34.65823 | -112.41350 | 4973 ft | 16 kts | 60° |
| 2026-04-28 00:52 | 34.65874 | -112.41254 | 4971 ft | 14 kts | 44° |
| 2026-04-28 00:52 | 34.65969 | -112.41156 | 4965 ft | 21 kts | 41° |
| 2026-04-28 00:52 | 34.66050 | -112.41069 | 4963 ft | 11 kts | 42° |
| 2026-04-28 00:53 | 34.66087 | -112.41030 | 4961 ft | 8 kts | 41° |
| 2026-04-28 00:53 | 34.66134 | -112.41027 | 4960 ft | 7 kts | 307° |
| 2026-04-28 00:53 | 34.66157 | -112.41059 | 4960 ft | 1 kts | 312° |
| 2026-04-28 00:53 | 34.66159 | -112.41062 | 4960 ft | 0 kts | 312° |
| 2026-04-28 00:55 | 34.66162 | -112.41065 | 4960 ft | 2 kts | 312° |
| 2026-04-28 00:55 | 34.66185 | -112.41097 | 4960 ft | 7 kts | 309° |
| 2026-04-28 00:55 | 34.66205 | -112.41142 | 4960 ft | 3 kts | 252° |
| 2026-04-28 00:56 | 34.66195 | -112.41156 | 4960 ft | 0 kts | 221° |
| 2026-04-28 00:57 | 34.66191 | -112.41161 | 4960 ft | 5 kts | 221° |
| 2026-04-28 00:58 | 34.66018 | -112.41342 | 4968 ft | 74 kts | 220° |
| 2026-04-28 00:58 | 34.65389 | -112.42008 | 5065 ft | 155 kts | 219° |
| 2026-04-28 00:58 | 34.64486 | -112.42931 | 5849 ft | 180 kts | 219° |
| 2026-04-28 00:58 | 34.63482 | -112.43845 | 6946 ft | 190 kts | 215° |
| 2026-04-28 00:59 | 34.62365 | -112.44855 | 7748 ft | 219 kts | 223° |
| 2026-04-28 00:59 | 34.61649 | -112.46581 | 8704 ft | 249 kts | 262° |
| 2026-04-28 00:59 | 34.62007 | -112.48608 | 10089 ft | 264 kts | 295° |
| 2026-04-28 00:59 | 34.63346 | -112.50204 | 11275 ft | 289 kts | 328° |
| 2026-04-28 01:00 | 34.65327 | -112.50806 | 12456 ft | 310 kts | 351° |
| 2026-04-28 01:00 | 34.67501 | -112.51246 | 13434 ft | 322 kts | 335° |
| 2026-04-28 01:00 | 34.69348 | -112.52695 | 14598 ft | 318 kts | 308° |
| 2026-04-28 01:00 | 34.70415 | -112.54948 | 15840 ft | 311 kts | 283° |
| 2026-04-28 01:01 | 34.70684 | -112.57513 | 17019 ft | 312 kts | 270° |
| 2026-04-28 01:01 | 34.70781 | -112.60131 | 18238 ft | 314 kts | 270° |
| 2026-04-28 01:01 | 34.70888 | -112.62739 | 19460 ft | 314 kts | 270° |
| 2026-04-28 01:01 | 34.70996 | -112.65377 | 20648 ft | 314 kts | 269° |
| 2026-04-28 01:02 | 34.71103 | -112.68018 | 21807 ft | 314 kts | 269° |
| 2026-04-28 01:02 | 34.71188 | -112.70643 | 22911 ft | 314 kts | 268° |
| 2026-04-28 01:02 | 34.71265 | -112.73316 | 23933 ft | 317 kts | 267° |
| 2026-04-28 01:02 | 34.71343 | -112.76002 | 24886 ft | 320 kts | 267° |
| 2026-04-28 01:03 | 34.71439 | -112.78736 | 25737 ft | 325 kts | 268° |
| 2026-04-28 01:03 | 34.71540 | -112.81477 | 26533 ft | 329 kts | 268° |
| 2026-04-28 01:03 | 34.71643 | -112.84259 | 27359 ft | 331 kts | 268° |
| 2026-04-28 01:03 | 34.71746 | -112.87045 | 28149 ft | 333 kts | 268° |
| 2026-04-28 01:04 | 34.71849 | -112.89877 | 28826 ft | 337 kts | 268° |
| 2026-04-28 01:04 | 34.71952 | -112.92715 | 29513 ft | 339 kts | 268° |
| 2026-04-28 01:04 | 34.72057 | -112.95606 | 30158 ft | 342 kts | 268° |
| 2026-04-28 01:04 | 34.72160 | -112.98503 | 30722 ft | 346 kts | 268° |
| 2026-04-28 01:05 | 34.72264 | -113.01393 | 31270 ft | 348 kts | 268° |
| 2026-04-28 01:05 | 34.72369 | -113.04347 | 31816 ft | 350 kts | 268° |
| 2026-04-28 01:05 | 34.72472 | -113.07281 | 32319 ft | 352 kts | 268° |
| 2026-04-28 01:05 | 34.72577 | -113.10287 | 32734 ft | 356 kts | 268° |
| 2026-04-28 01:06 | 34.72681 | -113.13287 | 33165 ft | 358 kts | 269° |
| 2026-04-28 01:06 | 34.72785 | -113.16300 | 33551 ft | 360 kts | 269° |
| 2026-04-28 01:06 | 34.72889 | -113.19332 | 33939 ft | 362 kts | 269° |
| 2026-04-28 01:06 | 34.72994 | -113.22410 | 34369 ft | 362 kts | 269° |
| 2026-04-28 01:07 | 34.73098 | -113.25468 | 34808 ft | 360 kts | 268° |
| 2026-04-28 01:07 | 34.73199 | -113.28477 | 35248 ft | 358 kts | 269° |
| 2026-04-28 01:07 | 34.73301 | -113.31506 | 35689 ft | 356 kts | 268° |
| 2026-04-28 01:07 | 34.73401 | -113.34531 | 36165 ft | 354 kts | 269° |
| 2026-04-28 01:08 | 34.73499 | -113.37502 | 36559 ft | 353 kts | 269° |
| 2026-04-28 01:08 | 34.73595 | -113.40472 | 36926 ft | 353 kts | 269° |
| 2026-04-28 01:08 | 34.73691 | -113.43440 | 37266 ft | 353 kts | 269° |
| 2026-04-28 01:08 | 34.73786 | -113.46418 | 37602 ft | 353 kts | 269° |
| 2026-04-28 01:09 | 34.73880 | -113.49375 | 37935 ft | 353 kts | 268° |
| 2026-04-28 01:09 | 34.74069 | -113.55430 | 38019 ft | 358 kts | 269° |
| 2026-04-28 01:10 | 34.74257 | -113.61487 | 38010 ft | 358 kts | 268° |
| 2026-04-28 01:10 | 34.74441 | -113.67585 | 38008 ft | 365 kts | 268° |
| 2026-04-28 01:11 | 34.74627 | -113.73833 | 38002 ft | 370 kts | 269° |
| 2026-04-28 01:11 | 34.74811 | -113.80098 | 38011 ft | 372 kts | 268° |
| 2026-04-28 01:12 | 34.74992 | -113.86356 | 37981 ft | 372 kts | 268° |
| 2026-04-28 01:12 | 34.75171 | -113.92641 | 37990 ft | 371 kts | 268° |
| 2026-04-28 01:13 | 34.75346 | -113.98954 | 37978 ft | 373 kts | 268° |
| 2026-04-28 01:13 | 34.75604 | -114.08393 | 37960 ft | 373 kts | 269° |
| 2026-04-28 01:14 | 34.75772 | -114.14708 | 37960 ft | 374 kts | 269° |
| 2026-04-28 01:14 | 34.75936 | -114.21030 | 37953 ft | 376 kts | 269° |
| 2026-04-28 01:15 | 34.76099 | -114.27435 | 37928 ft | 383 kts | 269° |
| 2026-04-28 01:15 | 34.76260 | -114.33909 | 37934 ft | 385 kts | 269° |
| 2026-04-28 01:16 | 34.76419 | -114.40434 | 37922 ft | 387 kts | 269° |
| 2026-04-28 01:16 | 34.76575 | -114.46941 | 37920 ft | 387 kts | 269° |
| 2026-04-28 01:17 | 34.76730 | -114.53511 | 37923 ft | 387 kts | 269° |
| 2026-04-28 01:17 | 34.76882 | -114.60091 | 37930 ft | 387 kts | 269° |
| 2026-04-28 01:18 | 34.77029 | -114.66623 | 37942 ft | 387 kts | 269° |
| 2026-04-28 01:18 | 34.77173 | -114.73214 | 37946 ft | 387 kts | 268° |
| 2026-04-28 01:19 | 34.77312 | -114.79736 | 37955 ft | 387 kts | 269° |
| 2026-04-28 01:19 | 34.77449 | -114.86305 | 37952 ft | 386 kts | 269° |
| 2026-04-28 01:20 | 34.77581 | -114.92812 | 37947 ft | 386 kts | 269° |
| 2026-04-28 01:20 | 34.77711 | -114.99365 | 37952 ft | 387 kts | 269° |
| 2026-04-28 01:21 | 34.77836 | -115.05883 | 37945 ft | 387 kts | 269° |
| 2026-04-28 01:21 | 34.77958 | -115.12414 | 37947 ft | 387 kts | 269° |
| 2026-04-28 01:22 | 34.78077 | -115.18984 | 37946 ft | 387 kts | 269° |
| 2026-04-28 01:22 | 34.78192 | -115.25499 | 37944 ft | 388 kts | 269° |
| 2026-04-28 01:23 | 34.78304 | -115.32067 | 37945 ft | 389 kts | 269° |
| 2026-04-28 01:23 | 34.78413 | -115.38659 | 37952 ft | 389 kts | 270° |
| 2026-04-28 01:24 | 34.78518 | -115.45225 | 37954 ft | 389 kts | 269° |
| 2026-04-28 01:24 | 34.78619 | -115.51811 | 37965 ft | 389 kts | 269° |
| 2026-04-28 01:25 | 34.78718 | -115.58424 | 37958 ft | 390 kts | 269° |
| 2026-04-28 01:25 | 34.78813 | -115.65028 | 37960 ft | 392 kts | 269° |
| 2026-04-28 01:26 | 34.78905 | -115.71694 | 37969 ft | 396 kts | 269° |
| 2026-04-28 01:26 | 34.78994 | -115.78390 | 37966 ft | 396 kts | 269° |
| 2026-04-28 01:27 | 34.79079 | -115.85098 | 37962 ft | 397 kts | 269° |
| 2026-04-28 01:27 | 34.79161 | -115.91836 | 37959 ft | 398 kts | 269° |
| 2026-04-28 01:28 | 34.79240 | -115.98582 | 37953 ft | 397 kts | 269° |
| 2026-04-28 01:28 | 34.79315 | -116.05334 | 37962 ft | 397 kts | 269° |
| 2026-04-28 01:29 | 34.79385 | -116.12044 | 37966 ft | 398 kts | 269° |
| 2026-04-28 01:29 | 34.79453 | -116.18770 | 37969 ft | 398 kts | 269° |
| 2026-04-28 01:30 | 34.79516 | -116.25529 | 37965 ft | 399 kts | 269° |
| 2026-04-28 01:30 | 34.79575 | -116.32244 | 37967 ft | 398 kts | 269° |
| 2026-04-28 01:31 | 34.79631 | -116.38971 | 37972 ft | 399 kts | 269° |
| 2026-04-28 01:31 | 34.79675 | -116.45723 | 37964 ft | 399 kts | 268° |
| 2026-04-28 01:32 | 34.79132 | -116.52399 | 37972 ft | 398 kts | 263° |
| 2026-04-28 01:32 | 34.78473 | -116.59063 | 37967 ft | 398 kts | 263° |
| 2026-04-28 01:33 | 34.77811 | -116.65748 | 37980 ft | 397 kts | 263° |
| 2026-04-28 01:33 | 34.77149 | -116.72414 | 37997 ft | 397 kts | 263° |
| 2026-04-28 01:34 | 34.76483 | -116.79092 | 38010 ft | 396 kts | 263° |
| 2026-04-28 01:34 | 34.75821 | -116.85706 | 37988 ft | 393 kts | 263° |
| 2026-04-28 01:35 | 34.75166 | -116.92231 | 37990 ft | 391 kts | 263° |
| 2026-04-28 01:35 | 34.74505 | -116.98789 | 37980 ft | 391 kts | 262° |
| 2026-04-28 01:36 | 34.73837 | -117.05377 | 37980 ft | 392 kts | 262° |
| 2026-04-28 01:36 | 34.73163 | -117.11980 | 37445 ft | 399 kts | 263° |
| 2026-04-28 01:37 | 34.72824 | -117.15288 | 36955 ft | 395 kts | 263° |
| 2026-04-28 01:37 | 34.72484 | -117.18596 | 36463 ft | 391 kts | 262° |
| 2026-04-28 01:37 | 34.72149 | -117.21848 | 35937 ft | 388 kts | 262° |
| 2026-04-28 01:37 | 34.71812 | -117.25109 | 35488 ft | 388 kts | 262° |
| 2026-04-28 01:38 | 34.71474 | -117.28372 | 34946 ft | 389 kts | 263° |
| 2026-04-28 01:38 | 34.71137 | -117.31619 | 34434 ft | 391 kts | 262° |
| 2026-04-28 01:38 | 34.70793 | -117.34914 | 33897 ft | 393 kts | 263° |
| 2026-04-28 01:38 | 34.70448 | -117.38225 | 33380 ft | 396 kts | 263° |
| 2026-04-28 01:39 | 34.70100 | -117.41550 | 32856 ft | 395 kts | 263° |
| 2026-04-28 01:39 | 34.69759 | -117.44804 | 32349 ft | 395 kts | 263° |
| 2026-04-28 01:39 | 34.69405 | -117.48169 | 31799 ft | 400 kts | 263° |
| 2026-04-28 01:39 | 34.69053 | -117.51509 | 31303 ft | 401 kts | 264° |
| 2026-04-28 01:40 | 34.68695 | -117.54896 | 30732 ft | 401 kts | 264° |
| 2026-04-28 01:40 | 34.68343 | -117.58227 | 30186 ft | 400 kts | 263° |
| 2026-04-28 01:40 | 34.67989 | -117.61557 | 29664 ft | 398 kts | 263° |
| 2026-04-28 01:40 | 34.67633 | -117.64900 | 29140 ft | 396 kts | 264° |
| 2026-04-28 01:41 | 34.67277 | -117.68236 | 28606 ft | 394 kts | 263° |
| 2026-04-28 01:41 | 34.66925 | -117.71526 | 28083 ft | 392 kts | 263° |
| 2026-04-28 01:41 | 34.66573 | -117.74799 | 27572 ft | 390 kts | 264° |
| 2026-04-28 01:41 | 34.66224 | -117.78043 | 27059 ft | 388 kts | 264° |
| 2026-04-28 01:42 | 34.65875 | -117.81281 | 26562 ft | 386 kts | 263° |
| 2026-04-28 01:42 | 34.65521 | -117.84545 | 26043 ft | 384 kts | 263° |
| 2026-04-28 01:42 | 34.65173 | -117.87753 | 25524 ft | 382 kts | 264° |
| 2026-04-28 01:42 | 34.64826 | -117.90945 | 25025 ft | 379 kts | 264° |
| 2026-04-28 01:43 | 34.64480 | -117.94116 | 24524 ft | 377 kts | 264° |
| 2026-04-28 01:43 | 34.64135 | -117.97272 | 24025 ft | 374 kts | 264° |
| 2026-04-28 01:43 | 34.63795 | -118.00372 | 23543 ft | 372 kts | 264° |
| 2026-04-28 01:43 | 34.63451 | -118.03503 | 23047 ft | 370 kts | 264° |
| 2026-04-28 01:44 | 34.63314 | -118.06617 | 22564 ft | 365 kts | 276° |
| 2026-04-28 01:44 | 34.63850 | -118.09671 | 22041 ft | 363 kts | 285° |
| 2026-04-28 01:44 | 34.64509 | -118.12629 | 21571 ft | 361 kts | 285° |
| 2026-04-28 01:44 | 34.65151 | -118.15550 | 21097 ft | 359 kts | 285° |
| 2026-04-28 01:45 | 34.65793 | -118.18474 | 20623 ft | 357 kts | 285° |
| 2026-04-28 01:45 | 34.66427 | -118.21388 | 20161 ft | 354 kts | 285° |
| 2026-04-28 01:45 | 34.67059 | -118.24275 | 19682 ft | 353 kts | 285° |
| 2026-04-28 01:45 | 34.67681 | -118.27119 | 19217 ft | 351 kts | 286° |
| 2026-04-28 01:46 | 34.68303 | -118.29962 | 18753 ft | 347 kts | 286° |
| 2026-04-28 01:46 | 34.68922 | -118.32802 | 18294 ft | 345 kts | 286° |
| 2026-04-28 01:46 | 34.69532 | -118.35597 | 17849 ft | 343 kts | 286° |
| 2026-04-28 01:46 | 34.70143 | -118.38406 | 17403 ft | 342 kts | 286° |
| 2026-04-28 01:47 | 34.70747 | -118.41183 | 16957 ft | 341 kts | 286° |
| 2026-04-28 01:47 | 34.71342 | -118.43928 | 16496 ft | 334 kts | 286° |
| 2026-04-28 01:47 | 34.71931 | -118.46646 | 16024 ft | 327 kts | 286° |
| 2026-04-28 01:47 | 34.72502 | -118.49284 | 15577 ft | 324 kts | 286° |
| 2026-04-28 01:48 | 34.73070 | -118.51907 | 15123 ft | 321 kts | 286° |
| 2026-04-28 01:48 | 34.73633 | -118.54514 | 14671 ft | 319 kts | 286° |
| 2026-04-28 01:48 | 34.74324 | -118.57069 | 14178 ft | 312 kts | 296° |
| 2026-04-28 01:48 | 34.75544 | -118.59180 | 13696 ft | 306 kts | 313° |
| 2026-04-28 01:49 | 34.77255 | -118.60711 | 13202 ft | 304 kts | 330° |
| 2026-04-28 01:49 | 34.79227 | -118.61593 | 12696 ft | 302 kts | 341° |
| 2026-04-28 01:49 | 34.81230 | -118.62296 | 12184 ft | 299 kts | 341° |
| 2026-04-28 01:49 | 34.83215 | -118.63000 | 11857 ft | 289 kts | 341° |
| 2026-04-28 01:50 | 34.85104 | -118.63670 | 11686 ft | 281 kts | 341° |
| 2026-04-28 01:50 | 34.87015 | -118.64353 | 11358 ft | 290 kts | 342° |
| 2026-04-28 01:50 | 34.88945 | -118.65041 | 10975 ft | 289 kts | 341° |
| 2026-04-28 01:50 | 34.90896 | -118.65737 | 10593 ft | 288 kts | 341° |
| 2026-04-28 01:51 | 34.92814 | -118.66421 | 10211 ft | 287 kts | 341° |
| 2026-04-28 01:51 | 34.94720 | -118.67102 | 9838 ft | 286 kts | 342° |
| 2026-04-28 01:51 | 34.96631 | -118.67785 | 9462 ft | 284 kts | 342° |
| 2026-04-28 01:51 | 34.98521 | -118.68461 | 9080 ft | 282 kts | 342° |
| 2026-04-28 01:52 | 35.00353 | -118.69221 | 8709 ft | 274 kts | 332° |
| 2026-04-28 01:52 | 35.01857 | -118.70581 | 8283 ft | 268 kts | 312° |
| 2026-04-28 01:52 | 35.02827 | -118.72495 | 7888 ft | 264 kts | 291° |
| 2026-04-28 01:52 | 35.03169 | -118.74661 | 7415 ft | 264 kts | 273° |
| 2026-04-28 01:53 | 35.03163 | -118.76883 | 7098 ft | 259 kts | 271° |
| 2026-04-28 01:53 | 35.03154 | -118.79091 | 6754 ft | 263 kts | 271° |
| 2026-04-28 01:53 | 35.03146 | -118.81319 | 6419 ft | 262 kts | 271° |
| 2026-04-28 01:53 | 35.03137 | -118.83524 | 6076 ft | 257 kts | 271° |
| 2026-04-28 01:54 | 35.03381 | -118.85637 | 5725 ft | 250 kts | 291° |
| 2026-04-28 01:54 | 35.04301 | -118.87416 | 5384 ft | 246 kts | 315° |
| 2026-04-28 01:54 | 35.05550 | -118.88821 | 5005 ft | 246 kts | 319° |
| 2026-04-28 01:54 | 35.06800 | -118.90184 | 4661 ft | 238 kts | 319° |
| 2026-04-28 01:55 | 35.07999 | -118.91498 | 4377 ft | 224 kts | 319° |
| 2026-04-28 01:55 | 35.09125 | -118.92734 | 4086 ft | 214 kts | 319° |
| 2026-04-28 01:55 | 35.10223 | -118.93938 | 3801 ft | 205 kts | 319° |
| 2026-04-28 01:55 | 35.11264 | -118.95081 | 3529 ft | 198 kts | 320° |
| 2026-04-28 01:56 | 35.12273 | -118.96190 | 3300 ft | 193 kts | 320° |
| 2026-04-28 01:56 | 35.13291 | -118.97182 | 3031 ft | 172 kts | 335° |
| 2026-04-28 01:56 | 35.14454 | -118.97516 | 2972 ft | 169 kts | 355° |
| 2026-04-28 01:56 | 35.15655 | -118.97649 | 2986 ft | 167 kts | 355° |
| 2026-04-28 01:57 | 35.16775 | -118.97778 | 3019 ft | 153 kts | 355° |
| 2026-04-28 01:57 | 35.17820 | -118.97899 | 3006 ft | 148 kts | 355° |
| 2026-04-28 01:57 | 35.18855 | -118.98019 | 2907 ft | 149 kts | 355° |
| 2026-04-28 01:57 | 35.19877 | -118.98138 | 2702 ft | 145 kts | 355° |
| 2026-04-28 01:58 | 35.20893 | -118.98255 | 2520 ft | 146 kts | 355° |
| 2026-04-28 01:58 | 35.21896 | -118.98372 | 2345 ft | 145 kts | 355° |
| 2026-04-28 01:58 | 35.22910 | -118.98489 | 2154 ft | 141 kts | 355° |
| 2026-04-28 01:58 | 35.23912 | -118.98606 | 1950 ft | 144 kts | 355° |
| 2026-04-28 01:59 | 35.24855 | -118.98715 | 1794 ft | 127 kts | 355° |
| 2026-04-28 01:59 | 35.25729 | -118.98816 | 1590 ft | 123 kts | 355° |
| 2026-04-28 01:59 | 35.26570 | -118.98913 | 1448 ft | 120 kts | 354° |
| 2026-04-28 01:59 | 35.27399 | -118.99010 | 1260 ft | 117 kts | 355° |
| 2026-04-28 02:00 | 35.28225 | -118.99105 | 1120 ft | 119 kts | 355° |
| 2026-04-28 02:00 | 35.29045 | -118.99200 | 938 ft | 118 kts | 354° |
| 2026-04-28 02:00 | 35.29874 | -118.99304 | 761 ft | 119 kts | 354° |
| 2026-04-28 02:00 | 35.30690 | -118.99394 | 609 ft | 119 kts | 354° |
| 2026-04-28 02:01 | 35.31522 | -118.99493 | 464 ft | 119 kts | 355° |
| 2026-04-28 02:01 | 35.32335 | -118.99586 | 387 ft | 105 kts | 354° |
| 2026-04-28 02:01 | 35.32756 | -118.99636 | 388 ft | 5 kts | 324° |
| 2026-04-28 02:01 | 35.32760 | -118.99643 | 388 ft | 0 kts | 294° |
| 2026-04-28 02:02 | 35.32754 | -118.99692 | 388 ft | 6 kts | 253° |
| 2026-04-28 02:02 | 35.32744 | -118.99710 | 388 ft | 0 kts | 226° |
| 2026-04-28 02:02 | 35.32745 | -118.99719 | 388 ft | 4 kts | 303° |
| 2026-04-28 02:02 | 35.32727 | -118.99741 | 388 ft | 7 kts | 179° |
| 2026-04-28 02:03 | 35.32661 | -118.99734 | 387 ft | 10 kts | 174° |
| 2026-04-28 02:03 | 35.32622 | -118.99730 | 387 ft | 1 kts | 202° |
| 2026-04-28 02:03 | 35.32614 | -118.99754 | 387 ft | 2 kts | 267° |
| 2026-04-28 02:03 | 35.32619 | -118.99788 | 387 ft | 1 kts | 355° |
| 2026-04-28 02:04 | 35.32622 | -118.99763 | 387 ft | 3 kts | 125° |
| 2026-04-28 02:04 | 35.32611 | -118.99754 | 387 ft | 0 kts | 178° |
| 2026-04-28 02:04 | 35.32604 | -118.99754 | 387 ft | 1 kts | 178° |
| 2026-04-28 02:04 | 35.32603 | -118.99754 | 387 ft | 0 kts | 177° |